aviador You're here:

PAKF Decoded Metar

FALSE PASS in AK, US
Report Time2017-03-23 04:01:00
UTC Time2017-03-23 04:17:23
Flight Rules vfr VFR
Wind310° at 10 kt
W.Decomp.*RWY 32: 9.0 kt HW 4.4 kt LCW
W.Rank310° ranks 3
Current wind is below 310° avg. (12.1)
Visibility9999 m
Phenomena:N/A
Clouds:N/A
Expected CloudBase > 2,800 ft AGL from Temp-Dew spread
CeilingNone
Temp-1°C (ISA -16)
Dew Point-8°C (59% RH)
AAT-7.5°C
QNH1013 hPa
Density Alt-1,890 ft
Elevation19 ft
Report Wrong Elevation
Raw Report
PAKF 230401Z AUTO 31010KT 10SM CLR M01/M08 A2992 RMK AO2 SLP230
T10061083 FZRANO $=

Extra information for PAKF:More info

Metar Taf Metar & Taf Last 4 Metars F.Rules Stats Wind Profile Meteogram Temp Stats Airport Information Weather charts Add Link Nearby VenuesMetar ALERT Operation Metar Decoded Social comments